Time;durP1;ratioP1;P1;durP2;ratioP2;P2;SDS_P1;SDS_P2;PMS_P1;PMS_P2;Temp;Humidity;BMP_temperature;BMP_pressure;BME280_temperature;BME280_humidity;BME280_pressure;Samples;Min_cycle;Max_cycle;Signal;HPM_P1;HPM_P2
2022/11/28 00:01:17;;;;;;;11.47;8.13;;;4.70;99.90;;;;;;4953557;28;20231;-77
2022/11/28 00:03:44;;;;;;;13.97;8.23;;;4.70;99.90;;;;;;4951058;28;20263;-77
2022/11/28 00:06:14;;;;;;;16.17;8.47;;;4.70;99.90;;;;;;4953147;28;20225;-77
2022/11/28 00:08:41;;;;;;;14.80;8.40;;;4.70;99.90;;;;;;4964602;28;20839;-77
2022/11/28 00:11:09;;;;;;;12.73;7.70;;;4.70;99.90;;;;;;4925890;28;20325;-77
2022/11/28 00:13:36;;;;;;;12.47;7.73;;;4.70;99.90;;;;;;4983754;28;20254;-77
2022/11/28 00:16:05;;;;;;;15.07;7.63;;;4.70;99.90;;;;;;4944408;28;20311;-78
2022/11/28 00:18:34;;;;;;;12.37;8.17;;;4.60;99.90;;;;;;5007179;28;20238;-77
2022/11/28 00:21:01;;;;;;;12.57;8.20;;;4.60;99.90;;;;;;5006622;28;20271;-78
2022/11/28 00:23:29;;;;;;;11.00;7.70;;;4.60;99.90;;;;;;4966111;28;20241;-78
2022/11/28 00:26:00;;;;;;;10.93;7.67;;;4.60;99.90;;;;;;4929872;28;20589;-78
2022/11/28 00:28:27;;;;;;;12.63;7.83;;;4.60;99.90;;;;;;4974782;28;20763;-76
2022/11/28 00:30:54;;;;;;;13.40;7.87;;;4.50;99.90;;;;;;4959763;28;20222;-77
2022/11/28 00:33:20;;;;;;;12.30;7.80;;;4.60;99.90;;;;;;5005165;28;20229;-77
2022/11/28 00:35:49;;;;;;;11.97;8.03;;;4.60;99.90;;;;;;4964264;28;20241;-77
2022/11/28 00:38:15;;;;;;;11.93;7.47;;;4.60;99.90;;;;;;4929634;28;20234;-77
2022/11/28 00:40:42;;;;;;;12.03;8.70;;;4.60;99.90;;;;;;4964643;28;20273;-77
2022/11/28 00:43:10;;;;;;;12.67;7.87;;;4.60;99.90;;;;;;4990167;28;20238;-77
2022/11/28 00:45:37;;;;;;;10.70;7.87;;;4.50;99.90;;;;;;5003848;28;20229;-78
2022/11/28 00:48:04;;;;;;;9.43;7.03;;;4.50;99.90;;;;;;4964518;28;20213;-77
2022/11/28 00:50:31;;;;;;;12.87;7.47;;;4.50;99.90;;;;;;4970485;28;20229;-76
2022/11/28 00:52:59;;;;;;;12.70;7.37;;;4.50;99.90;;;;;;5001446;28;20234;-77
2022/11/28 00:55:26;;;;;;;10.73;7.23;;;4.50;99.90;;;;;;4953388;28;20461;-77
2022/11/28 00:57:54;;;;;;;10.40;7.20;;;4.50;99.90;;;;;;4929952;28;20253;-76
2022/11/28 01:00:21;;;;;;;12.03;7.40;;;4.50;99.90;;;;;;4950891;28;20242;-78
2022/11/28 01:02:49;;;;;;;12.17;7.33;;;4.50;99.90;;;;;;4976403;28;20234;-77
2022/11/28 01:05:16;;;;;;;11.17;7.03;;;4.60;99.90;;;;;;4926889;28;20233;-78
2022/11/28 01:07:43;;;;;;;9.67;6.83;;;4.60;99.90;;;;;;4964859;28;20277;-78
2022/11/28 01:10:12;;;;;;;11.43;7.23;;;4.60;99.90;;;;;;5004565;28;20224;-78
2022/11/28 01:12:39;;;;;;;12.53;7.77;;;4.60;99.90;;;;;;4993733;28;20700;-78
2022/11/28 01:15:08;;;;;;;8.97;7.10;;;4.70;99.90;;;;;;4955633;28;20222;-78
2022/11/28 01:17:35;;;;;;;9.93;7.40;;;4.60;99.90;;;;;;4973123;28;20253;-78
2022/11/28 01:20:02;;;;;;;13.00;7.80;;;4.60;99.90;;;;;;5007656;28;20719;-78
2022/11/28 01:22:29;;;;;;;11.57;6.80;;;4.60;99.90;;;;;;4993088;28;20232;-78
2022/11/28 01:24:56;;;;;;;10.27;6.57;;;4.60;99.90;;;;;;4993620;28;20285;-77
2022/11/28 01:27:24;;;;;;;12.00;6.90;;;4.60;99.90;;;;;;5009027;28;20221;-78
2022/11/28 01:29:51;;;;;;;8.77;6.57;;;4.60;99.90;;;;;;5002314;28;20221;-78
2022/11/28 01:32:18;;;;;;;12.77;7.23;;;4.60;99.90;;;;;;4915273;28;20253;-78
2022/11/28 01:34:45;;;;;;;12.43;7.37;;;4.60;99.90;;;;;;4947909;28;20226;-76
2022/11/28 01:37:12;;;;;;;9.90;7.00;;;4.60;99.90;;;;;;5003051;28;20257;-77
2022/11/28 01:39:39;;;;;;;12.10;7.03;;;4.60;99.90;;;;;;4918536;28;20316;-77
2022/11/28 01:42:06;;;;;;;10.83;7.03;;;4.60;99.90;;;;;;4912443;28;20226;-76
2022/11/28 01:45:05;;;;;;;10.73;7.00;;;4.60;99.90;;;;;;4958533;28;20227;-77
2022/11/28 01:47:35;;;;;;;11.90;7.10;;;4.60;99.90;;;;;;5006277;28;20304;-77
2022/11/28 01:50:04;;;;;;;10.57;6.87;;;4.60;99.90;;;;;;4945048;28;20217;-77
2022/11/28 01:52:31;;;;;;;11.67;7.13;;;4.60;99.90;;;;;;4906958;28;20235;-78
2022/11/28 01:55:00;;;;;;;11.17;6.87;;;4.60;99.90;;;;;;4905302;28;20242;-77
2022/11/28 01:57:28;;;;;;;9.60;7.37;;;4.60;99.90;;;;;;4895375;28;20250;-77
2022/11/28 01:59:59;;;;;;;13.73;8.13;;;4.50;99.90;;;;;;4889653;28;20308;-77
2022/11/28 02:02:33;;;;;;;9.60;6.93;;;4.50;99.90;;;;;;4889333;28;20264;-76
2022/11/28 02:05:00;;;;;;;10.87;6.93;;;4.60;99.90;;;;;;4901322;28;20311;-76
2022/11/28 02:07:28;;;;;;;13.17;7.20;;;4.60;99.90;;;;;;4906236;28;20307;-78
2022/11/28 02:09:55;;;;;;;10.50;6.87;;;4.60;99.90;;;;;;4900664;28;20246;-76
2022/11/28 02:12:54;;;;;;;11.50;6.30;;;4.50;99.90;;;;;;4923948;28;20246;-77
2022/11/28 02:15:36;;;;;;;9.57;7.07;;;4.50;99.90;;;;;;4906220;28;20222;-77
2022/11/28 02:18:19;;;;;;;12.00;7.20;;;4.50;99.90;;;;;;5007125;28;20214;-78
2022/11/28 02:21:21;;;;;;;11.40;7.10;;;4.60;99.90;;;;;;4896744;28;20222;-77
2022/11/28 02:24:26;;;;;;;13.97;7.60;;;4.50;99.90;;;;;;4886827;29;20229;-76
2022/11/28 02:27:19;;;;;;;11.67;7.40;;;4.60;99.90;;;;;;4975855;28;20264;-76
2022/11/28 02:30:10;;;;;;;9.23;7.00;;;4.60;99.90;;;;;;5002530;28;20225;-76
2022/11/28 02:32:51;;;;;;;10.20;6.80;;;4.50;99.90;;;;;;4975549;28;20237;-77
2022/11/28 02:35:22;;;;;;;12.67;7.60;;;4.50;99.90;;;;;;5007296;28;20230;-76
2022/11/28 02:38:02;;;;;;;10.60;6.93;;;4.50;99.90;;;;;;5008996;28;20380;-76
2022/11/28 02:40:36;;;;;;;11.20;8.00;;;4.50;99.90;;;;;;4988768;28;20234;-77
2022/11/28 02:43:09;;;;;;;10.00;6.63;;;4.50;99.90;;;;;;4971018;28;20302;-77
2022/11/28 02:45:45;;;;;;;9.97;7.57;;;4.60;99.90;;;;;;4923364;28;20891;-77
2022/11/28 02:48:23;;;;;;;11.13;6.33;;;4.60;99.90;;;;;;4969030;28;20227;-77
2022/11/28 02:50:56;;;;;;;10.77;6.93;;;4.60;99.90;;;;;;4976634;28;20377;-77
2022/11/28 02:53:27;;;;;;;10.70;6.70;;;4.60;99.90;;;;;;4995030;28;20279;-76
2022/11/28 02:55:54;;;;;;;9.80;6.20;;;4.60;99.90;;;;;;4911194;28;20225;-77
2022/11/28 02:58:21;;;;;;;8.37;6.03;;;4.60;99.90;;;;;;5005409;28;20232;-77
2022/11/28 03:00:50;;;;;;;8.83;6.30;;;4.60;99.90;;;;;;4939441;28;20217;-77
2022/11/28 03:03:43;;;;;;;10.97;6.63;;;4.60;99.90;;;;;;4933077;28;20226;-77
2022/11/28 03:06:22;;;;;;;8.77;6.33;;;4.60;99.90;;;;;;4990799;28;20312;-77
2022/11/28 03:09:06;;;;;;;8.97;6.10;;;4.70;99.90;;;;;;4967584;28;21016;-78
2022/11/28 03:11:46;;;;;;;11.70;6.07;;;4.70;99.90;;;;;;4978028;28;20226;-77
2022/11/28 03:14:24;;;;;;;11.73;6.57;;;4.70;99.90;;;;;;5006002;28;20674;-77
2022/11/28 03:17:01;;;;;;;8.27;6.30;;;4.70;99.90;;;;;;4966949;28;20242;-77
2022/11/28 03:19:34;;;;;;;9.97;6.20;;;4.70;99.90;;;;;;5009688;28;20231;-77
2022/11/28 03:22:09;;;;;;;8.93;6.07;;;4.70;99.90;;;;;;4984832;28;20229;-77
2022/11/28 03:24:41;;;;;;;8.67;5.93;;;4.70;99.90;;;;;;4979062;28;20225;-77
2022/11/28 03:27:16;;;;;;;10.17;5.97;;;4.60;99.90;;;;;;4968425;28;20233;-78
2022/11/28 03:29:45;;;;;;;10.17;5.83;;;4.70;99.90;;;;;;4984159;28;20237;-76
2022/11/28 03:32:18;;;;;;;10.30;6.37;;;4.60;99.90;;;;;;4959996;28;20223;-78
2022/11/28 03:34:50;;;;;;;10.90;6.33;;;4.70;99.90;;;;;;4923835;28;20324;-78
2022/11/28 03:37:21;;;;;;;9.60;5.80;;;4.60;99.90;;;;;;4910258;28;20342;-77
2022/11/28 03:39:53;;;;;;;12.23;6.20;;;4.60;99.90;;;;;;4939992;28;20700;-77
2022/11/28 03:42:22;;;;;;;8.30;5.93;;;4.60;99.90;;;;;;4909793;28;20226;-77
2022/11/28 03:44:53;;;;;;;10.97;6.40;;;4.60;99.90;;;;;;4889488;28;20326;-77
2022/11/28 03:47:21;;;;;;;9.70;6.90;;;4.60;99.90;;;;;;4887951;28;20231;-77
2022/11/28 03:49:54;;;;;;;8.83;5.93;;;4.60;99.90;;;;;;4912041;28;20243;-78
2022/11/28 03:52:26;;;;;;;9.00;6.47;;;4.60;99.90;;;;;;4896100;28;20317;-76
2022/11/28 03:54:56;;;;;;;8.27;6.30;;;4.60;99.90;;;;;;4908796;28;20767;-77
2022/11/28 03:57:32;;;;;;;8.97;6.43;;;4.50;99.90;;;;;;4901862;28;20231;-77
2022/11/28 04:00:03;;;;;;;12.83;6.93;;;4.60;99.90;;;;;;4905477;28;20289;-76
2022/11/28 04:02:44;;;;;;;10.47;6.90;;;4.50;99.90;;;;;;4985809;28;20226;-77
2022/11/28 04:05:19;;;;;;;8.07;6.73;;;4.60;99.90;;;;;;4966385;28;20234;-77
2022/11/28 04:07:50;;;;;;;10.50;6.97;;;4.60;99.90;;;;;;4972144;28;20249;-77
2022/11/28 04:10:21;;;;;;;9.03;6.37;;;4.60;99.90;;;;;;4913139;28;20719;-77
2022/11/28 04:12:54;;;;;;;10.50;6.53;;;4.60;99.90;;;;;;4918876;28;20757;-77
2022/11/28 04:15:28;;;;;;;12.30;6.90;;;4.50;99.90;;;;;;4979396;28;20227;-77
2022/11/28 04:18:02;;;;;;;9.67;6.57;;;4.50;99.90;;;;;;4940160;28;21326;-77
2022/11/28 04:20:35;;;;;;;9.97;7.00;;;4.40;99.90;;;;;;4987699;28;20226;-77
2022/11/28 04:23:06;;;;;;;9.07;6.43;;;4.40;99.90;;;;;;4907669;28;20260;-76
2022/11/28 04:25:36;;;;;;;8.63;7.17;;;4.40;99.90;;;;;;4957895;28;20225;-77
2022/11/28 04:28:08;;;;;;;11.67;6.60;;;4.30;99.90;;;;;;4900890;28;20224;-77
2022/11/28 04:30:37;;;;;;;10.23;6.60;;;4.30;99.90;;;;;;4904405;28;20306;-77
2022/11/28 04:33:08;;;;;;;10.10;7.13;;;4.30;99.90;;;;;;4887929;28;20570;-77
2022/11/28 04:35:39;;;;;;;10.23;7.00;;;4.30;99.90;;;;;;4888834;28;20272;-78
2022/11/28 04:38:09;;;;;;;8.50;6.43;;;4.20;99.90;;;;;;4910402;28;20229;-77
2022/11/28 04:40:42;;;;;;;8.77;6.90;;;4.20;99.90;;;;;;4895743;28;20229;-77
2022/11/28 04:43:17;;;;;;;8.80;7.33;;;4.20;99.90;;;;;;4947789;28;20227;-77
2022/11/28 04:45:49;;;;;;;10.20;6.83;;;4.20;99.90;;;;;;4888354;28;20229;-77
2022/11/28 04:48:16;;;;;;;9.00;7.27;;;4.20;99.90;;;;;;4908450;28;20221;-76
2022/11/28 04:50:50;;;;;;;10.33;6.40;;;4.10;99.90;;;;;;4976572;28;20225;-77
2022/11/28 04:53:22;;;;;;;12.23;7.20;;;4.20;99.90;;;;;;4945662;28;20226;-77
2022/11/28 04:55:52;;;;;;;10.97;7.00;;;4.20;99.90;;;;;;4949002;28;20233;-77
2022/11/28 04:58:24;;;;;;;12.67;7.30;;;4.20;99.90;;;;;;4915548;28;20234;-77
2022/11/28 05:00:54;;;;;;;11.00;7.03;;;4.20;99.90;;;;;;4902685;28;20240;-77
2022/11/28 05:03:22;;;;;;;11.77;8.00;;;4.20;99.90;;;;;;4954953;28;20601;-78
2022/11/28 05:05:51;;;;;;;10.80;7.17;;;4.20;99.90;;;;;;4977357;28;20231;-78
2022/11/28 05:08:18;;;;;;;11.17;7.23;;;4.20;99.90;;;;;;4965728;28;20228;-78
2022/11/28 05:10:46;;;;;;;10.63;7.10;;;4.20;99.90;;;;;;5006667;28;20232;-78
2022/11/28 05:13:13;;;;;;;12.57;7.37;;;4.20;99.90;;;;;;5005596;28;20244;-77
2022/11/28 05:15:40;;;;;;;11.00;7.63;;;4.20;99.90;;;;;;4962936;28;20225;-77
2022/11/28 05:18:07;;;;;;;11.63;7.20;;;4.20;99.90;;;;;;4933486;28;20233;-77
2022/11/28 05:20:34;;;;;;;10.83;7.33;;;4.20;99.90;;;;;;4924872;28;20304;-77
2022/11/28 05:23:03;;;;;;;9.30;7.10;;;4.20;99.90;;;;;;4985311;28;20233;-85
2022/11/28 05:25:30;;;;;;;11.63;7.60;;;4.20;99.90;;;;;;4954644;28;20289;-82
2022/11/28 05:27:56;;;;;;;11.10;7.67;;;4.20;99.90;;;;;;4971977;28;20785;-82
2022/11/28 05:30:23;;;;;;;12.67;7.53;;;4.10;99.90;;;;;;4949325;28;20228;-82
2022/11/28 05:32:50;;;;;;;10.20;7.57;;;4.10;99.90;;;;;;4943644;28;20245;-83
2022/11/28 05:35:17;;;;;;;11.03;7.67;;;4.00;99.90;;;;;;4954184;28;20230;-80
2022/11/28 05:37:43;;;;;;;12.80;7.80;;;3.90;99.90;;;;;;4904422;28;20239;-80
2022/11/28 05:40:12;;;;;;;11.03;8.00;;;3.90;99.90;;;;;;4994827;28;20825;-81
2022/11/28 05:42:38;;;;;;;11.00;7.80;;;3.90;99.90;;;;;;5007402;28;20247;-80
2022/11/28 05:45:06;;;;;;;12.63;8.20;;;3.90;99.90;;;;;;5006460;28;20320;-81
2022/11/28 05:47:33;;;;;;;13.37;8.00;;;3.80;99.90;;;;;;5001641;28;20228;-80
2022/11/28 05:50:00;;;;;;;13.63;8.13;;;3.70;99.90;;;;;;5007205;28;20249;-79
2022/11/28 05:52:31;;;;;;;13.07;8.90;;;3.70;99.90;;;;;;5006753;28;20291;-80
2022/11/28 05:54:58;;;;;;;13.07;8.20;;;3.70;99.90;;;;;;4910060;28;20236;-81
2022/11/28 05:57:28;;;;;;;11.60;7.90;;;3.70;99.90;;;;;;4895964;28;20321;-81
2022/11/28 05:59:56;;;;;;;12.67;8.03;;;3.70;99.90;;;;;;4985849;28;20309;-80
2022/11/28 06:02:23;;;;;;;12.67;8.57;;;3.70;99.90;;;;;;4912254;28;20291;-80
2022/11/28 06:04:49;;;;;;;12.83;8.20;;;3.60;99.90;;;;;;4907984;28;20633;-81
2022/11/28 06:07:17;;;;;;;11.00;7.80;;;3.60;99.90;;;;;;4906892;28;20717;-80
2022/11/28 06:09:46;;;;;;;12.10;8.57;;;3.60;99.90;;;;;;4997339;28;20848;-80
2022/11/28 06:12:13;;;;;;;12.90;8.57;;;3.60;99.90;;;;;;4939147;28;20232;-81
2022/11/28 06:14:41;;;;;;;14.50;8.67;;;3.60;99.90;;;;;;4907418;28;20233;-80
2022/11/28 06:17:08;;;;;;;12.10;8.13;;;3.70;99.90;;;;;;4890666;28;20292;-81
2022/11/28 06:19:37;;;;;;;10.83;7.43;;;3.70;99.90;;;;;;4909801;28;20234;-82
2022/11/28 06:22:04;;;;;;;15.60;9.10;;;3.70;99.90;;;;;;4916759;28;20226;-81
2022/11/28 06:24:30;;;;;;;11.00;7.47;;;3.80;99.90;;;;;;4892715;28;20226;-80
2022/11/28 06:26:57;;;;;;;10.97;8.00;;;3.80;99.90;;;;;;4893965;28;20625;-79
2022/11/28 06:29:24;;;;;;;12.37;8.17;;;3.90;99.90;;;;;;4906800;28;20641;-80
2022/11/28 06:31:54;;;;;;;11.27;8.40;;;3.90;99.90;;;;;;4892436;28;20233;-79
2022/11/28 06:34:21;;;;;;;11.00;7.90;;;3.90;99.90;;;;;;4890808;28;20284;-82
2022/11/28 06:36:49;;;;;;;14.23;8.60;;;3.90;99.90;;;;;;4891572;28;20312;-81
2022/11/28 06:39:16;;;;;;;11.60;8.27;;;3.90;99.90;;;;;;4893789;28;20324;-82
2022/11/28 06:41:44;;;;;;;13.33;8.80;;;4.00;99.90;;;;;;4893784;28;20253;-80
2022/11/28 06:44:13;;;;;;;14.10;8.37;;;4.00;99.90;;;;;;4890715;28;20324;-81
2022/11/28 06:46:41;;;;;;;15.57;9.23;;;4.00;99.90;;;;;;4890288;28;20248;-81
2022/11/28 06:49:11;;;;;;;11.37;8.27;;;4.00;99.90;;;;;;4891548;28;20254;-81
2022/11/28 06:51:39;;;;;;;12.00;7.87;;;4.00;99.90;;;;;;4891866;28;21114;-82
2022/11/28 06:54:06;;;;;;;13.77;8.90;;;4.00;99.90;;;;;;4888925;28;20346;-81
2022/11/28 06:56:33;;;;;;;12.53;8.40;;;4.00;99.90;;;;;;4892894;28;20840;-82
2022/11/28 06:59:00;;;;;;;11.30;8.20;;;4.00;99.90;;;;;;4889687;28;20240;-80
2022/11/28 07:01:29;;;;;;;10.57;7.97;;;4.00;99.90;;;;;;4902868;28;20236;-81
2022/11/28 07:03:56;;;;;;;14.07;8.87;;;4.00;99.90;;;;;;4887154;28;20233;-80
2022/11/28 07:06:26;;;;;;;15.40;8.70;;;4.00;99.90;;;;;;4893835;28;20246;-81
2022/11/28 07:08:53;;;;;;;16.53;8.93;;;4.00;99.90;;;;;;4894207;28;20239;-82
2022/11/28 07:11:22;;;;;;;13.30;8.57;;;4.00;99.90;;;;;;4893059;28;20236;-81
2022/11/28 07:13:50;;;;;;;13.07;8.87;;;4.00;99.90;;;;;;4890419;28;20321;-81
2022/11/28 07:16:19;;;;;;;12.73;8.13;;;4.00;99.90;;;;;;4892412;28;20280;-81
2022/11/28 07:18:46;;;;;;;15.20;8.77;;;4.00;99.90;;;;;;4892369;28;20232;-81
2022/11/28 07:21:14;;;;;;;13.73;8.43;;;4.00;99.90;;;;;;4891843;28;20296;-82
2022/11/28 07:23:43;;;;;;;12.80;8.43;;;4.00;99.90;;;;;;4912328;28;20256;-81
2022/11/28 07:26:11;;;;;;;13.20;8.57;;;4.00;99.90;;;;;;4911315;28;20232;-81
2022/11/28 07:28:38;;;;;;;11.47;8.87;;;4.00;99.90;;;;;;4909310;28;20665;-81
2022/11/28 07:31:07;;;;;;;16.30;9.43;;;4.00;99.90;;;;;;4912038;28;20634;-81
2022/11/28 07:33:34;;;;;;;13.27;10.20;;;4.00;99.90;;;;;;4908199;28;20316;-81
2022/11/28 07:36:01;;;;;;;14.43;9.47;;;4.00;99.90;;;;;;4986871;28;20220;-80
2022/11/28 07:38:28;;;;;;;18.63;9.77;;;4.00;99.90;;;;;;4968956;28;20679;-81
2022/11/28 07:41:02;;;;;;;16.10;9.63;;;3.90;99.90;;;;;;4993150;28;20231;-80
2022/11/28 07:43:28;;;;;;;15.83;10.30;;;4.00;99.90;;;;;;4871702;28;20739;-81
2022/11/28 07:45:55;;;;;;;15.03;9.27;;;4.00;99.90;;;;;;4957344;28;20231;-80
2022/11/28 07:48:22;;;;;;;15.87;10.43;;;4.00;99.90;;;;;;4963092;28;20231;-82
2022/11/28 07:50:49;;;;;;;15.13;9.87;;;4.00;99.90;;;;;;4956853;28;20227;-81
2022/11/28 07:53:15;;;;;;;16.13;10.80;;;4.00;99.90;;;;;;5004935;28;20624;-82
2022/11/28 07:55:42;;;;;;;16.10;10.20;;;3.90;99.90;;;;;;4990145;28;20237;-81
2022/11/28 07:58:10;;;;;;;15.73;10.50;;;3.90;99.90;;;;;;4919143;28;20290;-81
2022/11/28 08:00:37;;;;;;;17.03;11.30;;;4.00;99.90;;;;;;4909284;28;20225;-79
2022/11/28 08:03:03;;;;;;;14.97;10.43;;;4.00;99.90;;;;;;4901230;28;20229;-80
2022/11/28 08:05:30;;;;;;;19.77;12.13;;;4.00;99.90;;;;;;5005676;28;20214;-83
2022/11/28 08:07:58;;;;;;;16.70;10.63;;;4.00;99.90;;;;;;4933600;28;20724;-80
2022/11/28 08:10:24;;;;;;;17.17;11.10;;;4.00;99.90;;;;;;4928663;28;20234;-80
2022/11/28 08:12:51;;;;;;;15.80;10.97;;;4.00;99.90;;;;;;5007555;28;20262;-83
2022/11/28 08:15:19;;;;;;;16.53;11.30;;;4.00;99.90;;;;;;4966005;28;20226;-80
2022/11/28 08:17:46;;;;;;;18.53;11.20;;;4.00;99.90;;;;;;4941895;28;20228;-81
2022/11/28 08:20:13;;;;;;;19.77;11.37;;;4.00;99.90;;;;;;4995606;28;20265;-80
2022/11/28 08:22:41;;;;;;;15.20;10.70;;;4.10;99.90;;;;;;5007286;28;20222;-82
2022/11/28 08:25:09;;;;;;;15.50;11.00;;;4.10;99.90;;;;;;4998995;28;20754;-83
2022/11/28 08:27:38;;;;;;;18.43;11.23;;;4.10;99.90;;;;;;4949661;28;20226;-82
2022/11/28 08:30:06;;;;;;;17.93;11.40;;;4.20;99.90;;;;;;4964220;28;20654;-82
2022/11/28 08:32:34;;;;;;;15.70;10.47;;;4.20;99.90;;;;;;4961822;28;20225;-81
2022/11/28 08:35:01;;;;;;;14.43;10.40;;;4.10;99.90;;;;;;5001149;28;20890;-81
2022/11/28 08:37:28;;;;;;;16.67;10.60;;;4.10;99.90;;;;;;4983865;28;20730;-80
2022/11/28 08:39:55;;;;;;;18.07;11.10;;;4.10;99.90;;;;;;5002463;28;20379;-80
2022/11/28 08:42:24;;;;;;;15.83;10.27;;;4.10;99.90;;;;;;4984103;28;20232;-82
2022/11/28 08:44:51;;;;;;;18.33;10.87;;;4.10;99.90;;;;;;5010262;28;20651;-81
2022/11/28 08:47:17;;;;;;;17.90;10.43;;;4.20;99.90;;;;;;5002444;28;20733;-81
2022/11/28 08:49:45;;;;;;;18.33;11.77;;;4.20;99.90;;;;;;5002818;28;20710;-80
2022/11/28 08:52:12;;;;;;;16.80;11.50;;;4.30;99.90;;;;;;4997511;28;20229;-81
2022/11/28 08:54:40;;;;;;;17.17;10.87;;;4.20;99.90;;;;;;4966598;28;20240;-83
2022/11/28 08:57:09;;;;;;;14.47;10.17;;;4.30;99.90;;;;;;4905179;28;20330;-83
2022/11/28 08:59:36;;;;;;;15.37;10.03;;;4.30;99.90;;;;;;4985990;28;20715;-82
2022/11/28 09:02:02;;;;;;;17.23;11.00;;;4.40;99.90;;;;;;4991661;28;20226;-82
2022/11/28 09:04:29;;;;;;;15.47;10.57;;;4.40;99.90;;;;;;4963071;28;20316;-83
2022/11/28 09:06:57;;;;;;;16.17;10.97;;;4.40;99.90;;;;;;5001526;28;20563;-81
2022/11/28 09:09:24;;;;;;;19.10;11.57;;;4.50;99.90;;;;;;5003327;28;20633;-82
2022/11/28 09:11:50;;;;;;;13.47;9.50;;;4.60;99.90;;;;;;4996538;28;20223;-81
2022/11/28 09:14:17;;;;;;;18.70;10.27;;;4.60;99.90;;;;;;4952700;28;20226;-82
2022/11/28 09:16:43;;;;;;;15.40;9.80;;;4.60;99.90;;;;;;4932514;28;20233;-81
2022/11/28 09:19:10;;;;;;;15.10;10.50;;;4.60;99.90;;;;;;4930795;28;20692;-82
2022/11/28 09:21:37;;;;;;;14.20;10.10;;;4.60;99.90;;;;;;4931544;28;20218;-82
2022/11/28 09:24:12;;;;;;;16.93;11.03;;;4.60;99.90;;;;;;5003784;28;20754;-80
2022/11/28 09:26:39;;;;;;;16.97;10.23;;;4.60;99.90;;;;;;4968699;28;20236;-82
2022/11/28 09:29:06;;;;;;;16.50;10.67;;;4.70;99.90;;;;;;4961404;28;20707;-80
2022/11/28 09:31:33;;;;;;;16.43;9.70;;;4.70;99.90;;;;;;5011391;28;20229;-82
2022/11/28 09:33:59;;;;;;;17.43;10.27;;;4.80;99.90;;;;;;4961128;28;20475;-81
2022/11/28 09:36:27;;;;;;;15.03;9.67;;;4.90;99.90;;;;;;4996704;28;20277;-81
2022/11/28 09:38:54;;;;;;;12.87;9.33;;;4.90;99.90;;;;;;5003934;28;20551;-84
2022/11/28 09:41:33;;;;;;;14.10;9.83;;;4.90;99.90;;;;;;5002907;28;20749;-81
2022/11/28 09:44:07;;;;;;;15.00;9.87;;;4.90;99.90;;;;;;4925575;28;20237;-81
2022/11/28 09:46:38;;;;;;;13.93;9.30;;;4.90;99.90;;;;;;4985970;28;20257;-83
2022/11/28 09:49:18;;;;;;;13.00;9.37;;;4.90;99.90;;;;;;4913281;28;20511;-82
2022/11/28 09:51:51;;;;;;;15.20;10.47;;;5.00;99.90;;;;;;4945093;28;20233;-81
2022/11/28 09:54:25;;;;;;;14.13;10.00;;;4.90;99.90;;;;;;4996150;28;20230;-81
2022/11/28 09:57:00;;;;;;;14.17;9.67;;;5.00;99.90;;;;;;4905594;28;20234;-82
2022/11/28 09:59:28;;;;;;;17.23;10.30;;;5.00;99.90;;;;;;4941563;28;20246;-82
2022/11/28 10:02:11;;;;;;;13.73;8.80;;;5.10;99.90;;;;;;4968699;28;20606;-81
2022/11/28 10:04:42;;;;;;;13.77;9.27;;;5.10;99.90;;;;;;4963927;28;20247;-80
2022/11/28 10:07:18;;;;;;;16.93;9.40;;;5.10;99.90;;;;;;4927564;28;20305;-82
2022/11/28 10:10:00;;;;;;;14.87;9.43;;;5.10;99.90;;;;;;5007103;28;20256;-81
2022/11/28 10:12:40;;;;;;;14.70;9.47;;;5.20;99.90;;;;;;4920740;28;20308;-80
2022/11/28 10:15:22;;;;;;;14.43;9.50;;;5.20;99.90;;;;;;4912999;28;20618;-81
2022/11/28 10:17:57;;;;;;;14.90;9.23;;;5.30;99.90;;;;;;4933591;28;20219;-80
2022/11/28 10:20:26;;;;;;;13.27;8.77;;;5.30;99.90;;;;;;4952931;28;20245;-81
2022/11/28 10:22:57;;;;;;;14.50;9.80;;;5.30;99.90;;;;;;4911793;28;20871;-80
2022/11/28 10:25:28;;;;;;;14.00;9.50;;;5.20;99.90;;;;;;4919883;28;21869;-80
2022/11/28 10:27:57;;;;;;;15.33;9.67;;;5.20;99.90;;;;;;4960597;28;20241;-80
2022/11/28 10:30:26;;;;;;;15.03;9.83;;;5.20;99.90;;;;;;4954528;28;20234;-82
2022/11/28 10:33:00;;;;;;;13.30;9.83;;;5.20;99.90;;;;;;4901227;28;20241;-80
2022/11/28 10:35:35;;;;;;;16.57;9.97;;;5.20;99.90;;;;;;4887935;28;20235;-82
2022/11/28 10:38:02;;;;;;;13.17;9.10;;;5.10;99.90;;;;;;4899654;28;20249;-80
2022/11/28 10:40:40;;;;;;;17.40;10.00;;;5.10;99.90;;;;;;4951885;28;20811;-81
2022/11/28 10:43:26;;;;;;;13.43;9.77;;;5.10;99.90;;;;;;4955250;28;20706;-80
2022/11/28 10:46:03;;;;;;;15.10;9.87;;;5.10;99.90;;;;;;4989182;28;20280;-79
2022/11/28 10:48:39;;;;;;;13.60;9.43;;;5.00;99.90;;;;;;4988129;28;20236;-80
2022/11/28 10:51:19;;;;;;;13.20;9.17;;;5.00;99.90;;;;;;4919436;28;20229;-79
2022/11/28 10:53:54;;;;;;;13.43;9.50;;;5.00;99.90;;;;;;4916946;28;20392;-80
2022/11/28 10:56:33;;;;;;;14.20;9.20;;;5.00;99.90;;;;;;4969793;28;20230;-82
2022/11/28 10:59:10;;;;;;;14.80;9.77;;;5.00;99.90;;;;;;5001895;28;20330;-80
2022/11/28 11:01:40;;;;;;;14.03;8.83;;;5.10;99.90;;;;;;5003911;28;20227;-80
2022/11/28 11:04:12;;;;;;;13.43;9.43;;;5.10;99.90;;;;;;4950934;28;20353;-80
2022/11/28 11:06:40;;;;;;;13.53;9.57;;;5.10;99.90;;;;;;5006864;28;20230;-82
2022/11/28 11:09:07;;;;;;;13.70;8.83;;;5.10;99.90;;;;;;4980447;28;20305;-83
2022/11/28 11:11:52;;;;;;;13.60;9.20;;;5.10;99.90;;;;;;4989233;28;20232;-85
2022/11/28 11:14:33;;;;;;;12.77;8.77;;;5.10;99.90;;;;;;4908619;28;20257;-81
2022/11/28 11:17:00;;;;;;;14.87;9.10;;;5.10;99.90;;;;;;4960330;28;20222;-79
2022/11/28 11:19:31;;;;;;;14.30;10.07;;;5.20;99.90;;;;;;4989956;28;20230;-82
2022/11/28 11:22:04;;;;;;;15.00;9.57;;;5.20;99.90;;;;;;4950297;28;20238;-80
2022/11/28 11:24:31;;;;;;;13.63;9.13;;;5.10;99.90;;;;;;4976384;28;20339;-81
2022/11/28 11:27:07;;;;;;;12.70;9.50;;;5.10;99.90;;;;;;4915833;28;20705;-80
2022/11/28 11:29:37;;;;;;;13.57;8.90;;;5.10;99.90;;;;;;4981179;28;20233;-81
2022/11/28 11:32:05;;;;;;;12.87;9.00;;;5.00;99.90;;;;;;4906724;28;20239;-81
2022/11/28 11:34:43;;;;;;;14.17;9.10;;;5.00;99.90;;;;;;4889395;28;20238;-80
2022/11/28 11:37:30;;;;;;;13.80;9.60;;;5.00;99.90;;;;;;4897557;28;20225;-81
2022/11/28 11:40:00;;;;;;;12.13;8.70;;;4.80;99.90;;;;;;4892119;28;20785;-80
2022/11/28 11:42:31;;;;;;;12.70;8.80;;;4.90;99.90;;;;;;4884577;28;20231;-80
2022/11/28 11:47:52;;;;;;;15.17;9.97;;;4.90;99.90;;;;;;5039703;28;21014;-80
2022/11/28 11:50:20;;;;;;;16.77;9.47;;;4.90;99.90;;;;;;5029719;28;20220;-79
2022/11/28 11:53:01;;;;;;;14.07;9.60;;;4.90;99.90;;;;;;5039146;28;20229;-79
2022/11/28 11:55:30;;;;;;;13.20;9.17;;;4.80;99.90;;;;;;5030150;28;20703;-80
2022/11/28 11:58:00;;;;;;;15.77;8.53;;;4.80;99.90;;;;;;5037124;28;20315;-81
2022/11/28 12:00:32;;;;;;;14.93;9.13;;;4.80;99.90;;;;;;5036636;28;20679;-81
2022/11/28 12:03:06;;;;;;;13.40;8.97;;;4.80;99.90;;;;;;5042427;28;20231;-82
2022/11/28 12:05:46;;;;;;;11.90;9.07;;;4.70;99.90;;;;;;5034984;28;20311;-82
2022/11/28 12:08:20;;;;;;;15.20;9.87;;;4.60;99.90;;;;;;5030887;28;20557;-82
2022/11/28 12:10:51;;;;;;;16.60;9.33;;;4.60;99.90;;;;;;5036295;28;20232;-82
2022/11/28 12:13:20;;;;;;;14.67;10.30;;;4.60;99.90;;;;;;5038100;28;20235;-81
2022/11/28 12:15:57;;;;;;;16.20;9.27;;;4.50;99.90;;;;;;5038168;28;20232;-82
2022/11/28 12:18:32;;;;;;;17.90;9.60;;;4.40;99.90;;;;;;5025703;28;20237;-82
2022/11/28 12:21:10;;;;;;;13.97;9.10;;;4.40;99.90;;;;;;5031520;28;20224;-82
2022/11/28 12:24:01;;;;;;;12.70;9.50;;;4.30;99.90;;;;;;5038231;28;20232;-82
2022/11/28 12:26:39;;;;;;;13.03;9.17;;;4.40;99.90;;;;;;5044240;28;20226;-82
2022/11/28 12:29:30;;;;;;;12.67;9.70;;;4.30;99.90;;;;;;5028269;28;20219;-82
2022/11/28 12:32:11;;;;;;;14.03;9.13;;;4.30;99.90;;;;;;5034551;28;20317;-82
2022/11/28 12:34:52;;;;;;;12.10;8.67;;;4.40;99.90;;;;;;5031666;28;20254;-83
2022/11/28 12:37:29;;;;;;;15.33;9.40;;;4.40;99.90;;;;;;5018409;28;20229;-83
2022/11/28 12:40:07;;;;;;;13.83;9.70;;;4.40;99.90;;;;;;5034995;28;20229;-83
2022/11/28 12:42:49;;;;;;;15.93;10.03;;;4.40;99.90;;;;;;5032960;28;20277;-83
2022/11/28 12:45:34;;;;;;;15.40;9.73;;;4.40;99.90;;;;;;5033550;28;20235;-82
2022/11/28 12:48:15;;;;;;;16.00;10.63;;;4.50;99.90;;;;;;5027172;28;20673;-82
2022/11/28 12:50:46;;;;;;;15.30;9.80;;;4.50;99.90;;;;;;5036029;28;20245;-84
2022/11/28 12:53:46;;;;;;;14.43;10.37;;;4.50;99.90;;;;;;5035412;28;20286;-83
2022/11/28 12:56:31;;;;;;;15.50;10.23;;;4.50;99.90;;;;;;5022225;28;20226;-83
2022/11/28 12:59:07;;;;;;;15.30;10.07;;;4.50;99.90;;;;;;5017746;28;20748;-82
2022/11/28 13:01:47;;;;;;;13.90;9.53;;;4.50;99.90;;;;;;5019086;28;20252;-84
2022/11/28 13:04:31;;;;;;;15.67;9.70;;;4.50;99.90;;;;;;5015245;28;20235;-84
2022/11/28 13:07:06;;;;;;;17.30;9.90;;;4.50;99.90;;;;;;5019242;28;20227;-82
2022/11/28 13:09:37;;;;;;;12.73;9.43;;;4.50;99.90;;;;;;5016856;28;20230;-83